CNC3 weather

Brampton Airport
Brampton, Ontario, Canada

Public forecast

Using degrees Celsius for public forecast. Weather courtesy of forecast.io.

METAR (pilot weather report)

Closest report is Lester B. Pearson International Airport, 11.7 nm (21.7 km) ESE. Retrieved 2018/11/20 07:00 UTC (22 minutes ago):

CYYZ 200700Z 28003KT 15SM FEW040 OVC090 01/M04 A2993 RMK SC1AS7 SLP142

TAF (pilot weather forecast)

Closest forecast is Lester B. Pearson International Airport, 11.7 nm (21.7 km) ESE. Retrieved 2018/11/20 03:40 UTC (4 hours ago):

TAF CYYZ 200238Z 2003/2106 30005KT P6SM BKN025 OVC120 TEMPO 2003/2009 OVC020 FM200900 29006KT 2SM -SN OVC020 TEMPO 2009/2014 6SM -SN BECMG 2011/2013 33015KT FM201400 33015G25KT P6SM BKN020 FM201600 32015G25KT P6SM FEW020 SCT040 BECMG 2018/2020 30012G22KT FM202300 28010KT P6SM SCT030 BKN120 FM210300 24008KT 21/2SM -SN OVC020 RMK NXT FCST BY 200600Z